createdAt,value
2018-08-10T00:00:06.163Z,60.00
2018-08-10T00:02:34.769Z,60.00
2018-08-10T00:05:03.188Z,60.00
2018-08-10T00:07:31.466Z,60.10
2018-08-10T00:09:59.788Z,60.30
2018-08-10T00:12:28.354Z,60.40
2018-08-10T00:14:56.818Z,60.50
2018-08-10T00:17:25.275Z,60.80
2018-08-10T00:19:53.771Z,61.00
2018-08-10T00:22:22.248Z,61.20
2018-08-10T00:24:50.659Z,61.30
2018-08-10T00:27:19.280Z,61.70
2018-08-10T00:29:47.676Z,62.00
2018-08-10T00:32:16.061Z,62.20
2018-08-10T00:34:44.549Z,62.50
2018-08-10T00:37:13.053Z,62.90
2018-08-10T00:39:41.566Z,63.20
2018-08-10T00:42:10.187Z,63.20
2018-08-10T00:44:38.591Z,63.70
2018-08-10T00:47:07.743Z,64.90
2018-08-10T00:49:36.230Z,64.30
2018-08-10T00:52:04.627Z,64.60
2018-08-10T00:54:33.087Z,64.80
2018-08-10T00:57:01.400Z,65.00
2018-08-10T00:59:29.903Z,65.50
2018-08-10T01:01:58.285Z,65.30
2018-08-10T01:04:26.802Z,65.40
2018-08-10T01:06:55.302Z,66.00
2018-08-10T01:09:24.216Z,65.70
2018-08-10T01:11:52.812Z,65.60
2018-08-10T01:14:21.195Z,65.70
2018-08-10T01:16:49.705Z,65.80
2018-08-10T01:19:18.213Z,65.70
2018-08-10T01:21:46.629Z,65.80
2018-08-10T01:24:15.126Z,65.80
2018-08-10T01:26:43.611Z,65.90
2018-08-10T01:29:11.924Z,66.00
2018-08-10T01:31:41.346Z,67.00
2018-08-10T01:34:09.850Z,66.30
2018-08-10T01:36:38.339Z,66.40
2018-08-10T01:39:09.212Z,66.30
2018-08-10T01:41:37.962Z,66.60
2018-08-10T01:44:07.327Z,66.40
2018-08-10T01:46:35.822Z,66.50
2018-08-10T01:49:05.123Z,66.30
2018-08-10T01:51:34.150Z,67.30
2018-08-10T01:54:02.576Z,66.60
2018-08-10T01:56:30.871Z,66.80
2018-08-10T01:58:59.277Z,66.90
2018-08-10T02:01:27.661Z,67.20
2018-08-10T02:03:56.277Z,67.30
2018-08-10T02:06:24.645Z,67.00
2018-08-10T02:08:53.163Z,66.90
2018-08-10T02:11:21.879Z,66.70
2018-08-10T02:13:50.260Z,66.90
2018-08-10T02:16:18.558Z,67.00
2018-08-10T02:18:46.660Z,66.90
2018-08-10T02:21:15.273Z,67.30
2018-08-10T02:23:44.813Z,67.20
2018-08-10T02:26:14.685Z,66.30
2018-08-10T02:28:44.546Z,65.80
2018-08-10T02:31:14.000Z,65.70
2018-08-10T02:33:44.200Z,65.90
2018-08-10T02:36:14.357Z,65.80
2018-08-10T02:38:43.997Z,65.80
2018-08-10T02:41:14.203Z,65.90
2018-08-10T02:43:43.797Z,65.70
2018-08-10T02:46:13.884Z,65.60
2018-08-10T02:48:43.812Z,65.80
2018-08-10T02:51:13.525Z,66.10
2018-08-10T02:53:42.838Z,66.10
2018-08-10T02:56:12.470Z,66.40
2018-08-10T02:58:41.948Z,67.30
2018-08-10T03:01:11.440Z,67.90
2018-08-10T03:03:40.932Z,68.10
2018-08-10T03:06:10.798Z,68.30
2018-08-10T03:08:40.707Z,68.40
2018-08-10T03:11:10.375Z,68.00
2018-08-10T03:13:40.213Z,67.90
2018-08-10T03:16:10.529Z,68.10
2018-08-10T03:18:43.330Z,68.90
2018-08-10T03:21:13.259Z,68.30
2018-08-10T03:23:42.978Z,68.00
2018-08-10T03:26:12.540Z,68.00
2018-08-10T03:28:42.318Z,67.70
2018-08-10T03:31:12.652Z,67.40
2018-08-10T03:33:42.645Z,67.20
2018-08-10T03:36:12.453Z,67.20
2018-08-10T03:38:46.537Z,67.60
2018-08-10T03:41:16.010Z,67.80
2018-08-10T03:43:45.428Z,67.70
2018-08-10T03:46:15.268Z,67.60
2018-08-10T03:48:44.959Z,67.60
2018-08-10T03:51:14.786Z,67.70
2018-08-10T03:53:44.576Z,67.80
2018-08-10T03:56:14.327Z,67.90
2018-08-10T03:58:44.011Z,68.20
2018-08-10T04:01:13.466Z,68.30
2018-08-10T04:03:43.577Z,68.50
2018-08-10T04:06:16.437Z,68.80
2018-08-10T04:08:45.855Z,68.80
2018-08-10T04:11:15.628Z,68.70
2018-08-10T04:13:45.836Z,68.80
2018-08-10T04:16:15.492Z,68.80
2018-08-10T04:18:45.396Z,69.10
2018-08-10T04:21:15.053Z,69.10
2018-08-10T04:23:44.494Z,69.20
2018-08-10T04:26:14.288Z,69.30
2018-08-10T04:28:43.807Z,69.30
2018-08-10T04:31:14.631Z,69.80
2018-08-10T04:33:44.229Z,69.60
2018-08-10T04:36:14.023Z,69.60
2018-08-10T04:38:43.478Z,69.90
2018-08-10T04:41:12.931Z,70.10
2018-08-10T04:43:42.570Z,70.40
2018-08-10T04:46:12.344Z,70.60
2018-08-10T04:48:42.846Z,70.80
2018-08-10T04:51:12.626Z,70.80
2018-08-10T04:53:42.286Z,71.00
2018-08-10T04:56:12.218Z,71.20
2018-08-10T04:58:42.145Z,71.40
2018-08-10T05:01:11.597Z,71.60
2018-08-10T05:03:41.403Z,71.60
2018-08-10T05:06:11.025Z,71.60
2018-08-10T05:08:40.889Z,71.70
2018-08-10T05:11:10.723Z,71.70
2018-08-10T05:13:40.408Z,71.90
2018-08-10T05:16:09.657Z,72.10
2018-08-10T05:18:39.389Z,72.30
2018-08-10T05:21:08.325Z,72.50
2018-08-10T05:23:37.958Z,72.40
2018-08-10T05:26:07.581Z,72.00
2018-08-10T05:28:37.768Z,71.10
2018-08-10T05:31:07.294Z,69.10
2018-08-10T05:33:36.952Z,69.50
2018-08-10T05:36:06.539Z,69.60
2018-08-10T05:38:36.818Z,69.80
2018-08-10T05:41:06.144Z,70.30
2018-08-10T05:43:40.845Z,71.20
2018-08-10T05:46:10.645Z,72.60
2018-08-10T05:48:41.452Z,73.60
2018-08-10T05:51:12.243Z,74.60
2018-08-10T05:53:42.442Z,75.70
2018-08-10T05:56:12.770Z,76.30
2018-08-10T05:58:42.842Z,76.70
2018-08-10T06:01:15.566Z,77.30
2018-08-10T06:03:45.456Z,77.60
2018-08-10T06:06:14.773Z,78.50
2018-08-10T06:08:44.090Z,79.60
2018-08-10T06:11:14.140Z,80.90
2018-08-10T06:13:43.356Z,82.00
2018-08-10T06:16:13.079Z,82.80
2018-08-10T06:18:42.974Z,83.60
2018-08-10T06:21:13.224Z,84.20
2018-08-10T06:23:43.332Z,84.90
2018-08-10T06:26:13.274Z,86.00
2018-08-10T06:28:42.635Z,86.50
2018-08-10T06:31:12.769Z,86.90
2018-08-10T06:33:42.460Z,86.80
2018-08-10T06:36:12.234Z,86.90
2018-08-10T06:38:42.932Z,86.80
2018-08-10T06:41:12.499Z,87.00
2018-08-10T06:43:42.703Z,87.60
2018-08-10T06:48:47.132Z,87.70
2018-08-10T06:51:16.551Z,86.50
2018-08-10T06:53:45.842Z,85.70
2018-08-10T06:56:15.683Z,85.60
2018-08-10T06:58:45.550Z,85.90
2018-08-10T07:01:15.946Z,86.00
2018-08-10T07:03:45.538Z,86.20
2018-08-10T07:06:15.051Z,86.30
2018-08-10T07:08:44.755Z,86.00
2018-08-10T07:11:14.267Z,85.90
2018-08-10T07:13:44.063Z,85.50
2018-08-10T07:16:13.658Z,85.20
2018-08-10T07:18:42.945Z,85.40
2018-08-10T07:21:13.072Z,83.90
2018-08-10T07:23:43.413Z,83.70
2018-08-10T07:26:13.199Z,83.80
2018-08-10T07:28:43.463Z,84.60
2018-08-10T07:31:13.893Z,84.70
2018-08-10T07:33:45.192Z,84.80
2018-08-10T07:36:16.894Z,84.40
2018-08-10T07:38:47.994Z,84.40
2018-08-10T07:41:18.067Z,84.60
2018-08-10T07:43:48.396Z,84.80
2018-08-10T07:46:18.141Z,85.50
2018-08-10T07:48:49.906Z,85.50
2018-08-10T07:51:21.377Z,84.60
2018-08-10T07:53:51.594Z,83.50
2018-08-10T07:56:23.715Z,82.60
2018-08-10T07:58:54.088Z,81.90
2018-08-10T08:01:24.880Z,80.60
2018-08-10T08:03:55.075Z,79.70
2018-08-10T08:06:24.355Z,79.10
2018-08-10T08:08:53.984Z,78.90
2018-08-10T08:11:23.551Z,78.50
2018-08-10T08:13:52.872Z,78.10
2018-08-10T08:16:23.103Z,77.90
2018-08-10T08:18:53.424Z,77.40
2018-08-10T08:27:09.272Z,75.30
2018-08-10T08:29:39.425Z,74.10
2018-08-10T08:32:09.095Z,73.20
2018-08-10T08:34:38.809Z,72.90
2018-08-10T08:37:08.336Z,72.90
2018-08-10T08:40:47.795Z,72.80
2018-08-10T08:43:29.863Z,72.70
2018-08-10T08:46:14.283Z,72.60
2018-08-10T08:48:45.640Z,72.60
2018-08-10T08:51:19.391Z,72.50
2018-08-10T08:53:53.323Z,72.80
2018-08-10T08:56:23.728Z,72.50
2018-08-10T08:58:53.272Z,72.30
2018-08-10T09:01:23.770Z,72.00
2018-08-10T09:04:59.977Z,71.80
2018-08-10T09:07:29.809Z,71.30
2018-08-10T09:09:59.208Z,71.40
2018-08-10T09:12:28.071Z,71.10
2018-08-10T09:14:59.428Z,70.70
2018-08-10T09:17:28.923Z,70.40
2018-08-10T09:19:58.763Z,70.10
2018-08-10T09:22:30.146Z,69.90
2018-08-10T09:24:59.748Z,69.50
2018-08-10T09:27:33.826Z,69.00
2018-08-10T09:30:03.891Z,68.30
2018-08-10T09:32:34.544Z,68.20
2018-08-10T09:35:04.949Z,67.30
2018-08-10T09:37:35.221Z,67.10
2018-08-10T09:40:06.540Z,66.60
2018-08-10T09:42:36.130Z,66.10
2018-08-10T09:45:06.550Z,66.30
2018-08-10T09:47:35.897Z,66.40
2018-08-10T09:50:05.723Z,65.80
2018-08-10T09:52:39.701Z,65.70
2018-08-10T09:55:39.643Z,65.60
2018-08-10T09:58:12.535Z,65.90
2018-08-10T10:00:47.774Z,65.10
2018-08-10T10:03:19.275Z,64.90
2018-08-10T10:05:49.521Z,64.50
2018-08-10T10:08:19.720Z,63.90
2018-08-10T10:10:49.648Z,63.10
2018-08-10T10:13:19.892Z,62.10
2018-08-10T10:15:49.614Z,61.10
2018-08-10T10:18:21.095Z,60.30
2018-08-10T10:20:50.861Z,59.60
2018-08-10T10:23:20.999Z,59.20
2018-08-10T10:25:50.959Z,58.60
2018-08-10T10:28:22.717Z,57.90
2018-08-10T10:30:52.376Z,57.50
2018-08-10T10:33:21.884Z,56.60
2018-08-10T10:35:51.911Z,56.20
2018-08-10T10:38:21.416Z,56.00
2018-08-10T10:40:51.755Z,55.10
2018-08-10T10:43:22.100Z,55.00
2018-08-10T10:45:51.951Z,54.70
2018-08-10T10:48:21.845Z,54.40
2018-08-10T10:50:54.072Z,53.70
2018-08-10T10:53:23.903Z,53.20
2018-08-10T10:55:54.060Z,53.20
2018-08-10T10:58:24.353Z,53.10
2018-08-10T11:00:54.592Z,53.40
2018-08-10T11:03:28.405Z,53.70
2018-08-10T11:05:58.504Z,54.00
2018-08-10T11:08:28.282Z,53.80
2018-08-10T11:10:58.574Z,53.60
2018-08-10T11:13:28.892Z,53.20
2018-08-10T11:15:58.480Z,53.10
2018-08-10T11:18:28.128Z,52.80
2018-08-10T11:20:58.572Z,52.10
2018-08-10T11:23:28.472Z,52.00
2018-08-10T11:25:58.883Z,51.70
2018-08-10T11:28:28.292Z,51.60
2018-08-10T11:30:57.625Z,51.50
2018-08-10T11:33:27.677Z,51.80
2018-08-10T11:35:57.630Z,51.50
2018-08-10T11:38:27.580Z,51.50
2018-08-10T11:40:58.214Z,50.80
2018-08-10T11:43:31.873Z,50.40
2018-08-10T11:46:01.623Z,50.50
2018-08-10T11:48:31.173Z,50.80
2018-08-10T11:51:00.781Z,50.80
2018-08-10T11:53:30.482Z,51.00
2018-08-10T11:56:00.210Z,51.30
2018-08-10T11:58:30.052Z,50.90
2018-08-10T12:00:59.537Z,51.20
2018-08-10T12:03:29.180Z,51.40
2018-08-10T12:05:58.918Z,50.80
2018-08-10T12:08:29.478Z,50.60
2018-08-10T12:10:59.436Z,50.40
2018-08-10T12:13:29.835Z,50.50
2018-08-10T12:15:59.840Z,50.60
2018-08-10T12:18:29.169Z,50.90
2018-08-10T12:20:59.370Z,51.10
2018-08-10T12:23:29.206Z,51.30
2018-08-10T12:26:02.931Z,51.40
2018-08-10T12:28:33.422Z,51.30
2018-08-10T12:31:05.579Z,51.20
2018-08-10T12:33:35.101Z,51.20
2018-08-10T12:36:07.399Z,51.20
2018-08-10T12:38:38.282Z,50.80
2018-08-10T12:41:08.975Z,50.60
2018-08-10T12:46:16.364Z,50.40
2018-08-10T12:48:46.976Z,50.20
2018-08-10T12:51:18.882Z,50.10
2018-08-10T12:53:48.857Z,49.50
2018-08-10T12:56:18.715Z,48.40
2018-08-10T12:58:49.006Z,48.60
2018-08-10T13:01:19.333Z,47.50
2018-08-10T13:03:49.036Z,47.20
2018-08-10T13:06:19.610Z,47.00
2018-08-10T13:08:49.792Z,46.90
2018-08-10T13:11:19.647Z,46.90
2018-08-10T13:13:49.443Z,47.20
2018-08-10T13:16:19.349Z,47.30
2018-08-10T13:18:49.253Z,47.40
2018-08-10T13:21:18.978Z,46.70
2018-08-10T13:23:48.616Z,46.80
2018-08-10T13:26:18.776Z,46.10
2018-08-10T13:28:48.517Z,46.00
2018-08-10T13:31:19.063Z,46.00
2018-08-10T13:33:49.378Z,46.10
2018-08-10T13:36:18.791Z,46.30
2018-08-10T13:38:48.329Z,46.60
2018-08-10T13:41:22.056Z,47.00
2018-08-10T13:43:51.604Z,46.50
2018-08-10T13:46:22.883Z,46.50
2018-08-10T13:48:54.597Z,47.10
2018-08-10T13:51:23.187Z,47.00
2018-08-10T13:53:51.706Z,46.70
2018-08-10T13:56:19.906Z,46.70
2018-08-10T13:58:49.395Z,47.10
2018-08-10T14:01:17.731Z,47.10
2018-08-10T14:03:46.230Z,46.80
2018-08-10T14:06:14.805Z,47.10
2018-08-10T14:08:43.228Z,46.80
2018-08-10T14:11:11.826Z,46.80
2018-08-10T14:13:40.350Z,48.10
2018-08-10T14:16:08.739Z,47.90
2018-08-10T14:18:37.451Z,47.50
2018-08-10T14:21:06.067Z,46.90
2018-08-10T14:23:35.798Z,46.80
2018-08-10T14:26:04.370Z,46.80
2018-08-10T14:28:33.092Z,46.50
2018-08-10T14:31:01.633Z,46.00
2018-08-10T14:33:30.984Z,46.50
2018-08-10T14:35:59.721Z,45.60
2018-08-10T14:38:29.009Z,45.40
2018-08-10T14:40:58.899Z,45.30
2018-08-10T14:43:27.580Z,45.60
2018-08-10T14:45:56.074Z,44.80
2018-08-10T14:48:24.627Z,44.50
2018-08-10T14:50:53.978Z,44.20
2018-08-10T14:53:22.658Z,43.80
2018-08-10T14:55:51.220Z,43.20
2018-08-10T14:58:19.752Z,43.00
2018-08-10T15:00:48.515Z,42.70
2018-08-10T15:03:17.025Z,42.90
2018-08-10T15:05:45.653Z,42.80
2018-08-10T15:08:14.235Z,42.60
2018-08-10T15:10:43.046Z,42.20
2018-08-10T15:13:11.656Z,42.10
2018-08-10T15:15:40.485Z,41.90
2018-08-10T15:19:10.199Z,41.70
2018-08-10T15:21:38.739Z,41.20
2018-08-10T15:24:07.542Z,41.00
2018-08-10T15:26:36.092Z,40.50
2018-08-10T15:29:04.740Z,40.40
2018-08-10T15:31:33.352Z,40.00
2018-08-10T15:34:01.979Z,39.90
2018-08-10T15:36:30.448Z,39.80
2018-08-10T15:38:59.236Z,39.70
2018-08-10T15:41:27.804Z,39.80
2018-08-10T15:43:56.594Z,40.20
2018-08-10T15:46:25.922Z,39.80
2018-08-10T15:48:54.599Z,39.50
2018-08-10T15:51:25.952Z,39.30
2018-08-10T15:53:57.388Z,39.60
2018-08-10T15:56:25.963Z,39.40
2018-08-10T15:58:55.448Z,39.50
2018-08-10T16:01:26.026Z,39.90
2018-08-10T16:04:26.114Z,40.50
2018-08-10T16:06:54.607Z,40.60
2018-08-10T16:09:23.341Z,40.40
2018-08-10T16:11:53.058Z,40.60
2018-08-10T16:14:21.532Z,40.50
2018-08-10T16:16:50.041Z,40.50
2018-08-10T16:19:18.470Z,40.70
2018-08-10T16:21:47.053Z,40.50
2018-08-10T16:24:15.659Z,40.60
2018-08-10T16:29:27.699Z,40.60
2018-08-10T16:31:56.214Z,40.60
2018-08-10T16:34:25.018Z,40.50
2018-08-10T16:36:53.534Z,40.40
2018-08-10T16:39:22.118Z,40.30
2018-08-10T16:41:51.517Z,40.40
2018-08-10T16:44:19.623Z,40.60
2018-08-10T16:46:48.047Z,40.70
2018-08-10T16:49:16.602Z,40.90
2018-08-10T16:51:45.018Z,41.50
2018-08-10T16:54:13.302Z,41.80
2018-08-10T16:56:42.328Z,42.20
2018-08-10T16:59:11.043Z,42.60
2018-08-10T17:01:39.645Z,43.10
2018-08-10T17:04:08.450Z,43.20
2018-08-10T17:06:37.161Z,43.30
2018-08-10T17:09:07.305Z,43.40
2018-08-10T17:11:35.691Z,43.30
2018-08-10T17:14:04.030Z,43.20
2018-08-10T17:16:32.412Z,42.20
2018-08-10T17:19:00.795Z,42.80
2018-08-10T17:21:29.202Z,43.00
2018-08-10T17:23:57.504Z,43.10
2018-08-10T17:26:26.038Z,43.40
2018-08-10T17:28:54.407Z,43.40
2018-08-10T17:31:22.694Z,43.10
2018-08-10T17:33:51.195Z,43.00
2018-08-10T17:36:19.643Z,43.30
2018-08-10T17:39:19.037Z,43.80
2018-08-10T17:41:47.921Z,44.10
2018-08-10T17:44:16.530Z,44.50
2018-08-10T17:46:45.155Z,44.80
2018-08-10T17:49:14.218Z,45.00
2018-08-10T17:51:42.572Z,45.40
2018-08-10T17:54:11.029Z,45.40
2018-08-10T17:56:39.633Z,45.70
2018-08-10T17:59:08.394Z,46.10
2018-08-10T18:01:36.730Z,46.30
2018-08-10T18:04:05.310Z,46.40
2018-08-10T18:06:33.500Z,46.90
2018-08-10T18:09:01.745Z,47.30
2018-08-10T18:11:30.442Z,47.70
2018-08-10T18:13:59.041Z,48.20
2018-08-10T18:16:27.659Z,48.60
2018-08-10T18:18:56.156Z,48.90
2018-08-10T18:21:24.656Z,49.60
2018-08-10T18:23:53.046Z,49.20
2018-08-10T18:26:22.527Z,49.30
2018-08-10T18:28:50.957Z,49.50
2018-08-10T18:31:19.447Z,50.10
2018-08-10T18:33:47.823Z,50.60
2018-08-10T18:36:16.403Z,50.50
2018-08-10T18:38:44.766Z,51.00
2018-08-10T18:41:12.840Z,51.20
2018-08-10T18:43:41.131Z,51.80
2018-08-10T18:46:09.760Z,52.20
2018-08-10T18:48:38.944Z,52.50
2018-08-10T18:51:07.593Z,52.60
2018-08-10T18:53:35.976Z,52.70
2018-08-10T18:56:04.645Z,52.70
2018-08-10T18:58:32.978Z,52.80
2018-08-10T19:01:01.513Z,53.60
2018-08-10T19:03:29.984Z,54.80
2018-08-10T19:05:58.529Z,56.00
2018-08-10T19:08:26.904Z,57.00
2018-08-10T19:10:55.380Z,57.90
2018-08-10T19:13:23.897Z,58.50
2018-08-10T19:15:52.417Z,58.90
2018-08-10T19:18:21.275Z,59.90
2018-08-10T19:20:49.703Z,59.60
2018-08-10T19:23:18.359Z,60.20
2018-08-10T19:25:46.836Z,61.40
2018-08-10T19:28:15.343Z,61.70
2018-08-10T19:30:43.924Z,62.20
2018-08-10T19:33:12.480Z,63.20
2018-08-10T19:35:40.928Z,62.60
2018-08-10T19:38:09.588Z,62.70
2018-08-10T19:40:37.876Z,63.00
2018-08-10T19:43:06.551Z,63.40
2018-08-10T19:45:35.776Z,63.90
2018-08-10T19:48:04.290Z,64.20
2018-08-10T19:50:32.673Z,64.50
2018-08-10T19:53:01.082Z,64.80
2018-08-10T19:55:29.517Z,64.90
2018-08-10T19:57:57.996Z,65.80
2018-08-10T20:00:26.744Z,65.60
2018-08-10T20:02:55.183Z,65.80
2018-08-10T20:05:23.708Z,66.10
2018-08-10T20:07:52.281Z,66.20
2018-08-10T20:10:20.831Z,66.30
2018-08-10T20:12:49.474Z,66.30
2018-08-10T20:15:18.616Z,66.40
2018-08-10T20:17:48.052Z,66.60
2018-08-10T20:20:17.936Z,66.80
2018-08-10T20:22:46.947Z,67.00
2018-08-10T20:25:15.611Z,66.80
2018-08-10T20:27:44.314Z,67.00
2018-08-10T20:30:14.937Z,67.10
2018-08-10T20:32:43.731Z,66.70
2018-08-10T20:35:14.080Z,66.60
2018-08-10T20:37:43.771Z,66.70
2018-08-10T20:40:15.853Z,66.90
2018-08-10T20:42:44.978Z,66.90
2018-08-10T20:45:14.019Z,67.00
2018-08-10T20:47:43.111Z,66.80
2018-08-10T20:50:14.875Z,66.80
2018-08-10T20:52:45.009Z,66.80
2018-08-10T20:55:14.285Z,66.80
2018-08-10T20:57:43.980Z,66.90
2018-08-10T21:00:12.672Z,67.10
2018-08-10T21:02:43.049Z,67.20
2018-08-10T21:05:12.065Z,67.10
2018-08-10T21:07:41.476Z,66.90
2018-08-10T21:10:12.837Z,66.40
2018-08-10T21:12:43.034Z,66.10
2018-08-10T21:15:16.198Z,66.20
2018-08-10T21:17:45.806Z,66.20
2018-08-10T21:20:15.738Z,65.80
2018-08-10T21:22:46.253Z,65.70
2018-08-10T21:25:14.991Z,65.60
2018-08-10T21:27:44.520Z,65.50
2018-08-10T21:30:15.948Z,65.40
2018-08-10T21:32:47.016Z,66.20
2018-08-10T21:35:16.412Z,65.40
2018-08-10T21:37:45.199Z,65.30
2018-08-10T21:40:14.076Z,65.50
2018-08-10T21:42:43.717Z,65.50
2018-08-10T21:45:13.731Z,65.70
2018-08-10T21:47:43.033Z,65.70
2018-08-10T21:50:13.857Z,65.70
2018-08-10T21:52:44.197Z,65.80
2018-08-10T21:55:13.129Z,66.00
2018-08-10T21:57:42.508Z,65.80
2018-08-10T22:00:32.658Z,65.60
2018-08-10T22:03:01.881Z,64.90
2018-08-10T22:05:30.999Z,66.00
2018-08-10T22:07:59.979Z,65.40
2018-08-10T22:10:29.196Z,65.30
2018-08-10T22:12:58.216Z,65.50
2018-08-10T22:15:32.018Z,66.10
2018-08-10T22:18:06.472Z,66.70
2018-08-10T22:20:35.706Z,66.80
2018-08-10T22:23:04.826Z,66.80
2018-08-10T22:25:33.839Z,67.10
2018-08-10T22:28:02.599Z,67.20
2018-08-10T22:30:31.241Z,67.40
2018-08-10T22:33:00.641Z,67.60
2018-08-10T22:35:30.098Z,67.90
2018-08-10T22:37:59.779Z,68.20
2018-08-10T22:40:29.746Z,68.20
2018-08-10T22:42:58.496Z,68.30
2018-08-10T22:45:28.089Z,68.50
2018-08-10T22:47:57.264Z,68.70
2018-08-10T22:50:25.783Z,68.70
2018-08-10T22:52:54.291Z,68.50
2018-08-10T22:55:23.574Z,68.20
2018-08-10T22:57:52.682Z,68.10
2018-08-10T23:00:21.583Z,68.20
2018-08-10T23:02:50.808Z,68.30
2018-08-10T23:05:19.986Z,69.40
2018-08-10T23:07:48.736Z,69.20
2018-08-10T23:10:18.300Z,69.40
2018-08-10T23:12:47.570Z,69.70
2018-08-10T23:15:17.027Z,69.80
2018-08-10T23:17:46.085Z,70.00
2018-08-10T23:20:15.021Z,70.20
2018-08-10T23:22:44.081Z,70.40
2018-08-10T23:25:13.875Z,70.60
2018-08-10T23:27:43.711Z,70.90
2018-08-10T23:30:16.725Z,71.30
2018-08-10T23:32:45.700Z,71.70
2018-08-10T23:35:14.297Z,72.10
2018-08-10T23:37:43.135Z,72.40
2018-08-10T23:40:14.391Z,72.70
2018-08-10T23:42:43.877Z,73.00
2018-08-10T23:45:13.575Z,74.20
2018-08-10T23:47:42.907Z,73.70
2018-08-10T23:50:13.813Z,74.10
2018-08-10T23:52:42.999Z,74.80
2018-08-10T23:55:12.078Z,75.10
2018-08-10T23:57:41.314Z,75.80
